This is the latest recevied weather packets stored in our database for station/object E24OWX-2. If no packets are shown the sender has not sent any weather packets the latest 10 day(s).
| Time | Temp. | Humidity | Pressure | Rain* | Wind** | Luminosity | Snow |
|---|---|---|---|---|---|---|---|
| 1777832728 | 34.44° C | 66% | 999 hPa | - | - | 0 W/m² | - |
| 1777831806 | 34.44° C | 66% | 999 hPa | - | - | 0 W/m² | - |
| 1777830883 | 34.44° C | 66% | 999 hPa | - | - | 0 W/m² | - |
| 1777829961 | 33.89° C | 65% | 999 hPa | - | - | 0 W/m² | - |
| 1777829039 | 33.33° C | 68% | 999 hPa | - | - | 0 W/m² | - |
| 1777828116 | 34.44° C | 65% | 998 hPa | - | - | 0 W/m² | - |
| 1777827194 | 34.44° C | 65% | 999 hPa | - | - | 0 W/m² | - |
| 1777826271 | 33.89° C | 64% | 998 hPa | - | - | 0 W/m² | - |
| 1777825349 | 34.44° C | 63% | 998 hPa | - | - | 0 W/m² | - |
| 1777824427 | 34.44° C | 63% | 998 hPa | - | - | 0 W/m² | - |
| 1777823504 | 35° C | 62% | 999 hPa | - | - | 0 W/m² | - |
| 1777822582 | 34.44° C | 64% | 998 hPa | - | - | 0 W/m² | - |
| 1777821660 | 33.89° C | 64% | 998 hPa | - | - | 0 W/m² | - |
| 1777820738 | 35° C | 61% | 998 hPa | - | - | 0 W/m² | - |
| 1777819815 | 35° C | 61% | 998 hPa | - | - | 0 W/m² | - |
| 1777818893 | 35.56° C | 60% | 998 hPa | - | - | 0 W/m² | - |
| 1777817970 | 35.56° C | 60% | 998 hPa | - | - | 0 W/m² | - |
| 1777817047 | 35° C | 61% | 998 hPa | - | - | 0 W/m² | - |
| 1777816125 | 35.56° C | 60% | 998 hPa | - | - | 0 W/m² | - |
| 1777815203 | 35.56° C | 58% | 998 hPa | - | - | 0 W/m² | - |
| 1777814281 | 35.56° C | 59% | 998 hPa | - | - | 0 W/m² | - |
| 1777813358 | 35° C | 59% | 998 hPa | - | - | 0 W/m² | - |
| 1777812436 | 35° C | 58% | 998 hPa | - | - | 0 W/m² | - |
| 1777811513 | 35.56° C | 57% | 998 hPa | - | - | 0 W/m² | - |
| 1777810590 | 35.56° C | 57% | 997 hPa | - | - | 0 W/m² | - |
* Rain since midnight (hover to see other rain measurements)
** Current wind speed in m/s (hover to see current wind gust speed)